Time;durP1;ratioP1;P1;durP2;ratioP2;P2;SDS_P1;SDS_P2;PMS_P1;PMS_P2;Temp;Humidity;BMP_temperature;BMP_pressure;BME280_temperature;BME280_humidity;BME280_pressure;Samples;Min_cycle;Max_cycle;Signal;HPM_P1;HPM_P2
2023/07/20 00:00:53;;;;;;;3.47;2.78;;;;;;;13.58;100.00;101439.81;5039204;28;20045;-81
2023/07/20 00:03:39;;;;;;;4.65;3.33;;;;;;;13.55;100.00;101446.16;5039321;28;20507;-81
2023/07/20 00:06:27;;;;;;;3.28;2.50;;;;;;;13.50;100.00;101442.00;5037446;28;20145;-81
2023/07/20 00:09:13;;;;;;;4.60;3.03;;;;;;;13.44;100.00;101441.31;5023856;28;20041;-81
2023/07/20 00:12:00;;;;;;;3.60;3.08;;;;;;;13.38;100.00;101449.59;5023351;28;20052;-80
2023/07/20 00:14:45;;;;;;;4.20;3.03;;;;;;;13.32;100.00;101444.56;5023069;28;20044;-81
2023/07/20 00:17:31;;;;;;;4.93;3.20;;;;;;;13.28;100.00;101440.31;5037322;28;20060;-81
2023/07/20 00:20:17;;;;;;;4.78;3.22;;;;;;;13.24;100.00;101446.72;5027655;28;20036;-81
2023/07/20 00:23:03;;;;;;;4.20;2.85;;;;;;;13.20;100.00;101451.31;5022005;28;20122;-81
2023/07/20 00:25:49;;;;;;;3.25;2.92;;;;;;;13.16;100.00;101453.28;5038194;28;20946;-81
2023/07/20 00:28:35;;;;;;;4.00;3.30;;;;;;;13.14;100.00;101456.94;5038128;28;20044;-79
2023/07/20 00:31:21;;;;;;;4.15;3.08;;;;;;;13.09;100.00;101449.16;5027713;28;20037;-81
2023/07/20 00:34:06;;;;;;;4.07;3.35;;;;;;;13.05;100.00;101450.25;5040534;28;20051;-82
2023/07/20 00:36:52;;;;;;;4.43;3.13;;;;;;;13.02;100.00;101453.06;5041306;28;20049;-82
2023/07/20 00:39:38;;;;;;;4.50;3.30;;;;;;;12.97;100.00;101447.91;5030725;28;20037;-81
2023/07/20 00:42:24;;;;;;;4.10;3.17;;;;;;;12.95;100.00;101451.56;5028118;28;20068;-82
2023/07/20 00:45:10;;;;;;;5.43;3.05;;;;;;;12.89;100.00;101442.97;5055442;28;20106;-81
2023/07/20 00:47:56;;;;;;;3.15;2.83;;;;;;;12.86;100.00;101440.44;5027536;28;20381;-81
2023/07/20 00:50:42;;;;;;;4.18;3.10;;;;;;;12.83;100.00;101447.69;5053899;28;20381;-81
2023/07/20 00:53:28;;;;;;;3.65;2.92;;;;;;;12.80;100.00;101454.00;5025685;28;20025;-82
2023/07/20 00:56:15;;;;;;;3.70;3.22;;;;;;;12.76;100.00;101440.00;5013353;28;20049;-81
2023/07/20 00:59:01;;;;;;;3.60;2.83;;;;;;;12.74;100.00;101448.97;5042397;28;20048;-81
2023/07/20 01:01:47;;;;;;;3.95;3.08;;;;;;;12.71;100.00;101449.13;5041148;28;20048;-81
2023/07/20 01:04:33;;;;;;;4.00;3.35;;;;;;;12.67;100.00;101448.41;5027001;28;20067;-82
2023/07/20 01:07:19;;;;;;;3.95;3.55;;;;;;;12.63;100.00;101452.97;5006564;28;20541;-79
2023/07/20 01:10:11;;;;;;;4.53;4.05;;;;;;;12.60;100.00;101453.09;5040271;28;20040;-81
2023/07/20 01:12:57;;;;;;;3.60;3.30;;;;;;;12.56;100.00;101446.22;5041990;28;20051;-82
2023/07/20 01:15:49;;;;;;;3.95;3.55;;;;;;;12.54;100.00;101448.09;5026864;28;20177;-81
2023/07/20 01:18:35;;;;;;;3.70;3.30;;;;;;;12.52;100.00;101449.94;5030338;28;20036;-82
2023/07/20 01:21:24;;;;;;;3.95;3.50;;;;;;;12.50;100.00;101449.13;5040393;28;20036;-81
2023/07/20 01:24:41;;;;;;;3.88;3.05;;;;;;;12.46;100.00;101452.84;5040312;28;20060;-80
2023/07/20 01:28:01;;;;;;;4.70;3.00;;;;;;;12.43;100.00;101455.66;5026276;28;20431;-81
2023/07/20 01:30:58;;;;;;;4.53;3.20;;;;;;;12.39;100.00;101451.41;5042304;28;20047;-81
2023/07/20 01:33:44;;;;;;;3.83;3.15;;;;;;;12.36;100.00;101453.25;5027197;28;20033;-81
2023/07/20 01:36:34;;;;;;;3.22;2.92;;;;;;;12.34;100.00;101452.47;5026796;28;20488;-81
2023/07/20 01:39:20;;;;;;;4.50;3.58;;;;;;;12.34;100.00;101448.94;5025309;28;20044;-81
2023/07/20 01:42:06;;;;;;;3.60;3.25;;;;;;;12.31;100.00;101451.75;5017658;28;20052;-81
2023/07/20 01:44:53;;;;;;;3.55;3.25;;;;;;;12.29;100.00;101451.81;5021549;28;20069;-81
2023/07/20 01:47:39;;;;;;;3.30;3.00;;;;;;;12.29;100.00;101449.16;5022064;28;20037;-81
2023/07/20 01:50:24;;;;;;;5.18;3.00;;;;;;;12.26;100.00;101440.44;5023803;28;20991;-81
2023/07/20 01:53:11;;;;;;;3.92;3.00;;;;;;;12.24;100.00;101451.13;5022923;28;20111;-81
2023/07/20 01:55:57;;;;;;;3.72;3.00;;;;;;;12.21;100.00;101445.97;5023149;28;20042;-81
2023/07/20 01:58:42;;;;;;;3.83;2.78;;;;;;;12.20;100.00;101438.94;5020978;28;20065;-81
2023/07/20 02:01:28;;;;;;;3.40;2.80;;;;;;;12.16;100.00;101442.63;5020791;28;20569;-81
2023/07/20 02:04:14;;;;;;;5.20;2.67;;;;;;;12.13;100.00;101445.41;5018833;28;20752;-81
2023/07/20 02:07:00;;;;;;;2.85;2.58;;;;;;;12.12;100.00;101446.34;5020731;28;20037;-81
2023/07/20 02:09:45;;;;;;;3.83;2.88;;;;;;;12.09;100.00;101440.25;5020569;28;20090;-81
2023/07/20 02:12:31;;;;;;;4.00;3.13;;;;;;;12.07;100.00;101443.88;5021455;28;20061;-81
2023/07/20 02:15:18;;;;;;;3.08;2.78;;;;;;;12.04;100.00;101433.41;5019763;28;20048;-79
2023/07/20 02:18:04;;;;;;;3.70;2.97;;;;;;;12.03;100.00;101443.16;5020691;28;20072;-80
2023/07/20 02:20:53;;;;;;;5.60;3.28;;;;;;;12.01;100.00;101442.34;5019940;28;20037;-80
2023/07/20 02:23:38;;;;;;;3.25;2.63;;;;;;;11.97;100.00;101438.06;5018848;28;20106;-80
2023/07/20 02:26:24;;;;;;;3.88;3.10;;;;;;;11.95;100.00;101439.94;5019410;28;20036;-80
2023/07/20 02:29:11;;;;;;;3.42;2.85;;;;;;;11.91;100.00;101443.63;5021315;28;20033;-80
2023/07/20 02:31:57;;;;;;;3.97;2.95;;;;;;;11.88;100.00;101449.06;5019863;28;20033;-80
2023/07/20 02:34:42;;;;;;;3.03;2.67;;;;;;;11.85;100.00;101443.88;5019522;28;20029;-80
2023/07/20 02:37:28;;;;;;;4.47;2.90;;;;;;;11.83;100.00;101449.28;5016641;28;20041;-80
2023/07/20 02:40:14;;;;;;;3.83;3.17;;;;;;;11.81;100.00;101451.97;5019944;28;20455;-80
2023/07/20 02:43:00;;;;;;;5.35;3.60;;;;;;;11.80;100.00;101447.59;5018431;28;20077;-80
2023/07/20 02:45:45;;;;;;;3.10;2.80;;;;;;;11.79;100.00;101445.88;5019690;28;20037;-80
2023/07/20 02:48:31;;;;;;;3.67;3.05;;;;;;;11.79;100.00;101442.34;5017049;28;20033;-80
2023/07/20 02:51:17;;;;;;;3.17;2.85;;;;;;;11.78;100.00;101449.44;5019740;28;20033;-81
2023/07/20 02:54:03;;;;;;;3.50;2.80;;;;;;;11.78;100.00;101454.75;5019592;28;20048;-81
2023/07/20 02:56:49;;;;;;;4.45;2.72;;;;;;;11.74;100.00;101454.94;5019500;28;20157;-80
2023/07/20 02:59:35;;;;;;;3.10;2.80;;;;;;;11.73;100.00;101447.91;5021348;28;20034;-81
2023/07/20 03:02:20;;;;;;;3.78;2.80;;;;;;;11.70;100.00;101451.53;5019573;28;20140;-80
2023/07/20 03:05:07;;;;;;;3.10;2.80;;;;;;;11.67;100.00;101456.97;5000987;28;20048;-80
2023/07/20 03:07:53;;;;;;;3.08;2.70;;;;;;;11.66;100.00;101456.09;5017345;28;20636;-80
2023/07/20 03:10:41;;;;;;;4.10;2.80;;;;;;;11.64;100.00;101451.78;5020202;28;20041;-80
2023/07/20 03:13:27;;;;;;;3.60;2.63;;;;;;;11.63;100.00;101460.66;5020243;28;20080;-80
2023/07/20 03:16:15;;;;;;;3.85;3.17;;;;;;;11.60;100.00;101460.81;5017285;28;20604;-80
2023/07/20 03:19:01;;;;;;;5.15;3.67;;;;;;;11.57;100.00;101461.78;5020162;28;20441;-80
2023/07/20 03:21:47;;;;;;;4.82;3.10;;;;;;;11.55;100.00;101458.31;5020955;28;20049;-80
2023/07/20 03:24:32;;;;;;;3.72;3.42;;;;;;;11.52;100.00;101461.97;5018449;28;20385;-80
2023/07/20 03:27:18;;;;;;;3.42;3.13;;;;;;;11.49;100.00;101463.88;5018778;28;20557;-80
2023/07/20 03:30:07;;;;;;;4.75;3.13;;;;;;;11.47;100.00;101461.28;5022387;28;20078;-80
2023/07/20 03:32:52;;;;;;;4.28;3.15;;;;;;;11.46;100.00;101470.16;5020629;28;20586;-79
2023/07/20 03:35:38;;;;;;;3.65;3.05;;;;;;;11.43;100.00;101464.13;5019317;28;20558;-79
2023/07/20 03:38:24;;;;;;;3.03;2.72;;;;;;;11.40;100.00;101457.16;5019328;28;20041;-80
2023/07/20 03:41:11;;;;;;;4.72;2.85;;;;;;;11.38;100.00;101461.63;5027289;28;20060;-79
2023/07/20 03:43:57;;;;;;;3.00;2.70;;;;;;;11.36;100.00;101459.06;5038086;28;20044;-80
2023/07/20 03:46:46;;;;;;;3.10;2.80;;;;;;;11.35;100.00;101457.34;5022792;28;20037;-80
2023/07/20 03:49:32;;;;;;;3.58;2.88;;;;;;;11.34;100.00;101458.22;5023154;28;21929;-80
2023/07/20 03:52:18;;;;;;;5.50;3.30;;;;;;;11.34;100.00;101460.03;5038807;28;20059;-80
2023/07/20 03:55:04;;;;;;;4.15;3.17;;;;;;;11.37;100.00;101465.22;5029124;28;20061;-80
2023/07/20 03:57:50;;;;;;;4.88;3.55;;;;;;;11.37;100.00;101465.22;5021578;28;20049;-80
2023/07/20 04:00:36;;;;;;;5.90;3.38;;;;;;;11.39;100.00;101463.38;5013393;28;20515;-80
2023/07/20 04:03:24;;;;;;;4.43;3.30;;;;;;;11.44;100.00;101463.19;5023798;28;20396;-80
2023/07/20 04:06:10;;;;;;;5.20;3.72;;;;;;;11.45;100.00;101463.16;5040146;28;20479;-80
2023/07/20 04:08:56;;;;;;;4.40;4.00;;;;;;;11.50;100.00;101465.63;5041244;28;20048;-80
2023/07/20 04:11:44;;;;;;;4.88;4.03;;;;;;;11.57;100.00;101455.63;5042927;28;21098;-80
2023/07/20 04:14:30;;;;;;;5.07;3.42;;;;;;;11.62;100.00;101462.47;5018722;28;20045;-80
2023/07/20 04:17:16;;;;;;;5.20;3.40;;;;;;;11.67;100.00;101462.28;5042177;28;20500;-80
2023/07/20 04:20:02;;;;;;;4.55;2.83;;;;;;;11.71;100.00;101458.56;5029386;28;20040;-80
2023/07/20 04:22:48;;;;;;;4.80;3.20;;;;;;;11.75;100.00;101464.59;5041134;28;20399;-79
2023/07/20 04:25:38;;;;;;;4.82;3.75;;;;;;;11.77;100.00;101463.63;5028813;28;20181;-79
2023/07/20 04:28:24;;;;;;;3.97;3.58;;;;;;;11.79;100.00;101456.50;5016287;28;20040;-79
2023/07/20 04:31:12;;;;;;;8.88;3.60;;;;;;;11.81;100.00;101464.38;5028939;28;20482;-80
2023/07/20 04:33:57;;;;;;;4.95;3.10;;;;;;;11.84;100.00;101469.56;5043324;28;20517;-79
2023/07/20 04:36:43;;;;;;;3.33;2.80;;;;;;;11.87;100.00;101476.53;5029188;28;20044;-80
2023/07/20 04:39:30;;;;;;;3.20;2.63;;;;;;;11.89;100.00;101478.19;5043143;28;20044;-80
2023/07/20 04:42:16;;;;;;;3.83;2.70;;;;;;;11.90;100.00;101484.34;5031738;28;20079;-79
2023/07/20 04:45:02;;;;;;;3.42;2.88;;;;;;;11.93;100.00;101484.25;5043148;28;20488;-79
2023/07/20 04:47:47;;;;;;;5.88;2.67;;;;;;;11.97;100.00;101491.13;5041999;28;20033;-79
2023/07/20 04:50:33;;;;;;;3.00;2.70;;;;;;;12.02;100.00;101490.94;5042953;28;20037;-79
2023/07/20 04:53:19;;;;;;;3.28;2.95;;;;;;;12.05;100.00;101493.53;5027185;28;20091;-79
2023/07/20 04:56:05;;;;;;;5.28;2.90;;;;;;;12.09;100.00;101493.31;5042487;28;21164;-80
2023/07/20 04:58:51;;;;;;;4.47;3.15;;;;;;;12.14;100.00;101495.78;5030050;28;20095;-79
2023/07/20 05:01:36;;;;;;;3.22;2.85;;;;;;;12.19;100.00;101493.81;5028632;28;20051;-79
2023/07/20 05:04:22;;;;;;;5.18;3.35;;;;;;;12.25;100.00;101502.44;5043150;28;20072;-79
2023/07/20 05:07:08;;;;;;;3.78;2.97;;;;;;;12.30;100.00;101490.69;5041675;28;20051;-79
2023/07/20 05:09:53;;;;;;;3.33;2.97;;;;;;;12.35;100.00;101504.66;5043884;28;20056;-80
2023/07/20 05:12:39;;;;;;;3.30;3.00;;;;;;;12.42;100.00;101493.75;5042373;28;20041;-80
2023/07/20 05:15:25;;;;;;;3.42;2.95;;;;;;;12.49;100.00;101496.06;5026628;28;20087;-80
2023/07/20 05:18:11;;;;;;;4.72;3.28;;;;;;;12.58;100.00;101502.78;5042061;28;20048;-80
2023/07/20 05:20:56;;;;;;;6.40;3.30;;;;;;;12.67;100.00;101504.19;5025684;28;20502;-80
2023/07/20 05:23:42;;;;;;;5.60;3.10;;;;;;;12.75;100.00;101503.84;5041228;28;20127;-80
2023/07/20 05:26:28;;;;;;;5.07;3.00;;;;;;;12.86;100.00;101503.38;5042011;28;20037;-80
2023/07/20 05:29:14;;;;;;;3.70;2.78;;;;;;;12.95;100.00;101504.72;5041737;28;20159;-79
2023/07/20 05:32:02;;;;;;;6.28;2.85;;;;;;;13.06;100.00;101493.63;5041700;28;20056;-79
2023/07/20 05:34:52;;;;;;;4.18;2.47;;;;;;;13.16;100.00;101498.47;5041929;28;20036;-79
2023/07/20 05:37:38;;;;;;;3.88;2.65;;;;;;;13.27;100.00;101492.66;5040173;28;20033;-79
2023/07/20 05:40:24;;;;;;;4.88;2.83;;;;;;;13.38;100.00;101502.78;5015990;28;20388;-79
2023/07/20 05:43:10;;;;;;;4.53;2.40;;;;;;;13.50;100.00;101505.84;5041075;28;20044;-79
2023/07/20 05:45:56;;;;;;;4.40;2.72;;;;;;;13.61;100.00;101502.66;5026993;28;20025;-79
2023/07/20 05:48:42;;;;;;;3.05;2.28;;;;;;;13.74;100.00;101505.59;5027261;28;20048;-79
2023/07/20 05:51:27;;;;;;;2.50;2.30;;;;;;;13.88;100.00;101502.25;5026310;28;20117;-79
2023/07/20 05:54:13;;;;;;;2.55;2.28;;;;;;;14.00;100.00;101498.97;5041285;28;21973;-79
2023/07/20 05:57:01;;;;;;;3.28;2.40;;;;;;;14.16;100.00;101506.22;5041136;28;20099;-79
2023/07/20 05:59:47;;;;;;;2.30;2.10;;;;;;;14.34;100.00;101501.75;5026303;28;20146;-79
2023/07/20 06:02:33;;;;;;;2.15;1.98;;;;;;;14.48;100.00;101499.25;5041217;28;20143;-79
2023/07/20 06:05:20;;;;;;;2.97;1.85;;;;;;;14.66;100.00;101502.75;5040658;28;20036;-79
2023/07/20 06:08:06;;;;;;;3.78;2.00;;;;;;;14.79;100.00;101503.03;5023990;28;20075;-80
2023/07/20 06:10:52;;;;;;;5.22;3.53;;;;;;;14.83;100.00;101500.19;5016085;28;20037;-79
2023/07/20 06:13:38;;;;;;;3.83;2.60;;;;;;;14.90;100.00;101506.91;5025883;28;20101;-79
2023/07/20 06:16:23;;;;;;;3.03;2.40;;;;;;;15.07;100.00;101509.53;5040971;28;20063;-79
2023/07/20 06:19:11;;;;;;;2.17;1.70;;;;;;;15.29;100.00;101503.03;5029293;28;20597;-79
2023/07/20 06:21:57;;;;;;;2.47;1.70;;;;;;;15.49;100.00;101503.72;5025862;28;20049;-79
2023/07/20 06:24:43;;;;;;;2.65;1.70;;;;;;;15.72;100.00;101512.25;5041150;28;21914;-77
2023/07/20 06:27:29;;;;;;;1.85;1.50;;;;;;;15.94;100.00;101508.38;5025887;28;20033;-78
2023/07/20 06:30:14;;;;;;;2.55;1.83;;;;;;;16.14;100.00;101508.06;5024993;28;20036;-78
2023/07/20 06:33:00;;;;;;;1.25;1.02;;;;;;;16.28;100.00;101509.06;5040651;28;20069;-78
2023/07/20 06:35:46;;;;;;;2.03;1.17;;;;;;;16.39;100.00;101505.75;5030094;28;20037;-78
2023/07/20 06:38:32;;;;;;;4.43;1.70;;;;;;;16.54;100.00;101510.19;5030542;28;20036;-78
2023/07/20 06:41:19;;;;;;;1.30;1.08;;;;;;;16.76;100.00;101516.03;5039517;28;20527;-78
2023/07/20 06:44:05;;;;;;;2.72;1.25;;;;;;;16.88;100.00;101515.28;5002366;28;20041;-77
2023/07/20 06:46:50;;;;;;;1.38;1.13;;;;;;;17.09;100.00;101514.94;5039866;28;20068;-78
2023/07/20 06:49:36;;;;;;;2.47;1.20;;;;;;;17.29;100.00;101518.19;5039163;28;20041;-78
2023/07/20 06:52:22;;;;;;;1.05;0.70;;;;;;;17.44;100.00;101519.03;5039024;28;20075;-78
2023/07/20 06:55:08;;;;;;;1.40;0.75;;;;;;;17.56;100.00;101520.03;5025531;28;20076;-78
2023/07/20 06:57:54;;;;;;;0.75;0.70;;;;;;;17.70;100.00;101522.69;5039122;28;20043;-78
2023/07/20 07:00:39;;;;;;;1.90;0.80;;;;;;;17.92;100.00;101529.31;5039175;28;20453;-78
2023/07/20 07:03:25;;;;;;;0.95;0.80;;;;;;;18.07;100.00;101526.63;5039248;28;20045;-78
2023/07/20 07:06:11;;;;;;;1.08;0.70;;;;;;;18.12;100.00;101530.72;5030999;28;20122;-78
2023/07/20 07:08:56;;;;;;;0.70;0.70;;;;;;;18.15;100.00;101537.69;5039800;28;20488;-78
2023/07/20 07:11:42;;;;;;;2.80;0.93;;;;;;;18.19;100.00;101536.50;5040324;28;20044;-78
2023/07/20 07:14:28;;;;;;;1.38;1.00;;;;;;;18.29;100.00;101536.75;5023476;28;20045;-78
2023/07/20 07:17:14;;;;;;;11.38;1.63;;;;;;;18.25;100.00;101532.56;5039044;28;20044;-78
2023/07/20 07:20:00;;;;;;;1.35;1.10;;;;;;;18.03;100.00;101539.34;5024467;28;20096;-79
2023/07/20 07:22:46;;;;;;;2.35;1.20;;;;;;;17.96;100.00;101535.31;5023943;28;20718;-78
2023/07/20 07:25:32;;;;;;;4.65;1.20;;;;;;;18.02;100.00;101538.47;5027969;28;20122;-78
2023/07/20 07:28:17;;;;;;;1.70;1.20;;;;;;;18.18;100.00;101549.06;5029304;28;20122;-76
2023/07/20 07:31:04;;;;;;;2.53;1.08;;;;;;;18.06;100.00;101544.50;5029600;28;20072;-79
2023/07/20 07:33:51;;;;;;;4.45;1.30;;;;;;;17.98;100.00;101553.00;5053184;28;20045;-78
2023/07/20 07:36:36;;;;;;;3.42;1.50;;;;;;;18.08;100.00;101545.25;5024436;28;20029;-78
2023/07/20 07:39:24;;;;;;;1.88;1.30;;;;;;;18.32;100.00;101542.75;5024583;28;20084;-78
2023/07/20 07:42:09;;;;;;;3.83;1.40;;;;;;;18.52;99.73;101545.91;5039613;28;20080;-78
2023/07/20 07:44:55;;;;;;;4.30;1.40;;;;;;;18.65;100.00;101551.31;5039265;28;20051;-78
2023/07/20 07:47:41;;;;;;;1.67;1.20;;;;;;;18.82;100.00;101550.13;5039110;28;20119;-78
2023/07/20 07:50:27;;;;;;;2.97;1.40;;;;;;;18.93;98.28;101546.69;5025569;28;20033;-78
2023/07/20 07:53:12;;;;;;;1.80;1.00;;;;;;;19.12;97.81;101553.50;5039741;28;20052;-78
2023/07/20 07:55:58;;;;;;;1.83;1.33;;;;;;;18.99;95.52;101561.50;5040470;28;20609;-78
2023/07/20 07:58:44;;;;;;;2.42;1.25;;;;;;;18.94;94.96;101553.78;5030324;28;20036;-78
2023/07/20 08:01:30;;;;;;;4.93;2.60;;;;;;;19.01;94.58;101551.50;5040135;28;20068;-78
2023/07/20 08:04:15;;;;;;;2.30;1.50;;;;;;;19.16;92.68;101564.88;5052213;28;20051;-78
2023/07/20 08:07:03;;;;;;;1.80;1.20;;;;;;;19.14;91.66;101560.44;5038539;28;20507;-78
2023/07/20 08:09:49;;;;;;;2.30;1.42;;;;;;;19.11;91.24;101555.31;5038863;28;20109;-78
2023/07/20 08:12:35;;;;;;;2.72;1.23;;;;;;;19.22;90.82;101559.03;5037876;28;20668;-78
2023/07/20 08:15:21;;;;;;;2.25;1.70;;;;;;;19.34;90.24;101557.34;5027901;28;20157;-78
2023/07/20 08:18:07;;;;;;;2.45;1.52;;;;;;;19.49;89.71;101558.03;5024437;28;20037;-78
2023/07/20 08:20:53;;;;;;;4.88;2.85;;;;;;;19.57;88.32;101550.31;5012619;28;20052;-78
2023/07/20 08:23:40;;;;;;;3.88;1.98;;;;;;;19.61;87.52;101550.94;5022924;28;20128;-78
2023/07/20 08:26:26;;;;;;;1.98;1.13;;;;;;;19.72;87.94;101547.47;5027344;28;20045;-78
2023/07/20 08:29:11;;;;;;;1.52;1.15;;;;;;;19.81;85.00;101549.47;5039064;28;20096;-78
2023/07/20 08:31:57;;;;;;;3.00;1.50;;;;;;;19.87;84.20;101551.69;5024582;28;20037;-79
2023/07/20 08:34:43;;;;;;;1.95;1.30;;;;;;;19.88;84.62;101555.25;5023671;28;20037;-78
2023/07/20 08:37:29;;;;;;;1.60;1.20;;;;;;;19.79;84.33;101556.78;5025756;28;20087;-78
2023/07/20 08:40:14;;;;;;;2.30;1.30;;;;;;;19.78;82.66;101553.22;5052571;28;20071;-78
2023/07/20 08:43:00;;;;;;;3.33;1.60;;;;;;;19.93;84.37;101556.63;5040484;28;20068;-78
2023/07/20 08:45:47;;;;;;;1.85;1.20;;;;;;;20.00;83.02;101558.88;5025652;28;20492;-78
2023/07/20 08:48:33;;;;;;;3.75;1.70;;;;;;;19.84;82.84;101557.31;5012267;28;20118;-78
2023/07/20 08:51:19;;;;;;;2.78;1.50;;;;;;;19.60;83.39;101555.44;5040176;28;20048;-78
2023/07/20 08:54:06;;;;;;;2.97;1.80;;;;;;;19.46;83.61;101552.91;5024424;28;20040;-78
2023/07/20 08:56:52;;;;;;;2.40;1.60;;;;;;;19.35;84.61;101556.34;5043756;28;20029;-78
2023/07/20 08:59:38;;;;;;;1.52;1.20;;;;;;;19.31;84.92;101550.34;5043561;28;20115;-78
2023/07/20 09:02:26;;;;;;;2.17;1.17;;;;;;;19.60;85.37;101544.69;5015037;28;20572;-78
2023/07/20 09:05:14;;;;;;;3.25;1.20;;;;;;;19.81;84.87;101549.47;5029092;28;20079;-78
2023/07/20 09:07:59;;;;;;;4.72;1.40;;;;;;;19.94;83.88;101544.88;5043010;28;20052;-78
2023/07/20 09:10:45;;;;;;;2.88;1.40;;;;;;;20.14;84.51;101542.56;5055176;28;20041;-78
2023/07/20 09:13:35;;;;;;;1.65;1.23;;;;;;;20.16;83.94;101545.16;5027506;28;20043;-78
2023/07/20 09:16:20;;;;;;;2.42;1.30;;;;;;;20.10;83.63;101551.81;5041881;28;20119;-78
2023/07/20 09:19:06;;;;;;;3.92;1.50;;;;;;;20.20;84.94;101552.00;5016563;28;20130;-78
2023/07/20 09:21:52;;;;;;;1.48;1.38;;;;;;;20.40;85.43;101547.81;5042042;28;20076;-78
2023/07/20 09:24:38;;;;;;;2.92;1.42;;;;;;;20.65;86.98;101556.69;5044190;28;20037;-78
2023/07/20 09:27:40;;;;;;;2.45;1.38;;;;;;;20.79;79.20;101562.81;5026362;28;20041;-78
2023/07/20 09:30:26;;;;;;;3.60;1.55;;;;;;;20.58;82.94;101561.66;5054832;28;20409;-77
2023/07/20 09:33:19;;;;;;;1.40;1.30;;;;;;;20.17;80.54;101574.63;5042167;28;20047;-78
2023/07/20 09:36:05;;;;;;;2.67;1.55;;;;;;;19.90;82.33;101577.47;5041626;28;20037;-78
2023/07/20 09:38:51;;;;;;;2.97;1.30;;;;;;;19.74;83.32;101561.63;5041939;28;20073;-78
2023/07/20 09:41:42;;;;;;;2.53;1.50;;;;;;;19.63;83.06;101568.66;5042566;28;20417;-78
2023/07/20 09:44:28;;;;;;;4.72;1.60;;;;;;;19.75;83.21;101571.41;5040113;28;20076;-78
2023/07/20 09:47:24;;;;;;;3.03;1.55;;;;;;;20.04;81.40;101571.13;5024858;28;20396;-78
2023/07/20 09:50:12;;;;;;;2.33;1.42;;;;;;;20.07;82.26;101566.38;5025737;28;22089;-78
2023/07/20 09:52:58;;;;;;;3.30;1.45;;;;;;;20.12;81.53;101566.03;5028307;28;20056;-78
2023/07/20 09:55:45;;;;;;;2.03;1.42;;;;;;;20.00;79.90;101564.25;5030186;28;20040;-78
2023/07/20 09:58:31;;;;;;;1.88;1.20;;;;;;;19.96;80.78;101566.31;5040896;28;20495;-78
2023/07/20 10:01:21;;;;;;;3.13;1.55;;;;;;;19.95;80.74;101564.59;5054728;28;20041;-78
2023/07/20 10:04:09;;;;;;;2.85;1.60;;;;;;;19.80;80.99;101566.56;5012901;28;20102;-78
2023/07/20 10:06:56;;;;;;;1.92;1.48;;;;;;;19.57;81.18;101566.41;5025721;28;20585;-78
2023/07/20 10:09:43;;;;;;;2.40;1.38;;;;;;;19.45;82.11;101561.94;5026490;28;20037;-78
2023/07/20 10:12:30;;;;;;;2.83;1.20;;;;;;;19.35;81.88;101556.34;5040953;28;20163;-78
2023/07/20 10:15:34;;;;;;;2.95;1.60;;;;;;;19.31;81.44;101561.09;5025407;28;20043;-78
2023/07/20 10:18:29;;;;;;;2.45;1.50;;;;;;;19.36;81.90;101558.94;5040811;28;20040;-78
2023/07/20 10:21:17;;;;;;;4.32;1.40;;;;;;;19.39;81.24;101564.06;5025548;28;20139;-78
2023/07/20 10:24:03;;;;;;;2.45;1.17;;;;;;;19.24;81.22;101559.81;5024585;28;20151;-78
2023/07/20 10:26:49;;;;;;;2.55;1.42;;;;;;;19.24;81.83;101559.81;5024809;28;20037;-78
2023/07/20 10:29:34;;;;;;;1.77;1.30;;;;;;;19.31;81.22;101557.53;5041592;28;20458;-77
2023/07/20 10:32:20;;;;;;;1.83;1.25;;;;;;;19.48;80.88;101565.25;5039663;28;20044;-77
2023/07/20 10:35:18;;;;;;;2.30;1.50;;;;;;;19.56;78.55;101553.97;5027308;28;22002;-78
2023/07/20 10:38:04;;;;;;;1.75;1.17;;;;;;;19.54;79.14;101556.75;5025257;28;20039;-78
2023/07/20 10:40:56;;;;;;;3.25;1.30;;;;;;;19.30;81.50;101553.13;5039231;28;20148;-78
2023/07/20 10:43:45;;;;;;;3.07;1.60;;;;;;;18.64;82.98;101562.13;5024410;28;20079;-79
2023/07/20 10:46:35;;;;;;;2.83;1.35;;;;;;;18.23;84.34;101556.78;5012705;28;20162;-78
2023/07/20 10:49:26;;;;;;;3.83;1.60;;;;;;;18.17;85.84;101562.56;5041695;28;21922;-78
2023/07/20 10:52:12;;;;;;;2.75;1.55;;;;;;;18.43;85.26;101559.94;5040772;28;20063;-78
2023/07/20 10:55:10;;;;;;;3.05;1.38;;;;;;;18.71;83.42;101558.06;5040747;28;20138;-78
2023/07/20 10:58:27;;;;;;;2.50;1.50;;;;;;;19.02;81.80;101547.91;5014553;28;20115;-78
2023/07/20 11:01:17;;;;;;;2.65;1.58;;;;;;;19.24;80.74;101541.88;5039933;28;20049;-78
2023/07/20 11:04:08;;;;;;;2.38;1.45;;;;;;;19.53;80.95;101546.09;5024945;28;20052;-78
2023/07/20 11:06:56;;;;;;;2.28;1.38;;;;;;;19.77;80.04;101553.34;5039069;28;20044;-78
2023/07/20 11:09:42;;;;;;;2.63;1.20;;;;;;;19.80;78.94;101539.69;5025200;28;20037;-78
2023/07/20 11:12:28;;;;;;;1.55;1.27;;;;;;;19.87;78.92;101550.84;5015456;28;20942;-77
2023/07/20 11:15:14;;;;;;;3.28;1.60;;;;;;;19.86;78.40;101549.97;5025641;28;20120;-77
2023/07/20 11:18:12;;;;;;;2.40;1.52;;;;;;;19.67;74.71;101543.28;5040489;28;20052;-77
2023/07/20 11:20:58;;;;;;;2.35;1.33;;;;;;;19.62;78.06;101547.28;5025665;28;20447;-77
2023/07/20 11:23:45;;;;;;;2.50;1.30;;;;;;;19.65;77.89;101552.41;5038903;28;20040;-77
2023/07/20 11:26:39;;;;;;;4.22;1.13;;;;;;;19.84;74.30;101551.94;5039914;28;20037;-77
2023/07/20 11:29:26;;;;;;;2.13;1.10;;;;;;;19.83;75.76;101542.13;5023605;28;20048;-77
2023/07/20 11:32:12;;;;;;;2.03;1.33;;;;;;;19.76;76.23;101546.25;5039850;28;20087;-77
2023/07/20 11:34:59;;;;;;;4.30;1.40;;;;;;;19.80;76.86;101537.00;5041295;28;20052;-77
2023/07/20 11:37:44;;;;;;;3.60;1.40;;;;;;;19.97;77.34;101541.16;5039071;28;20036;-77
2023/07/20 11:40:30;;;;;;;1.42;1.20;;;;;;;20.13;75.98;101543.56;5040056;28;20076;-77
2023/07/20 11:43:16;;;;;;;3.50;1.27;;;;;;;20.16;74.88;101545.16;5038473;28;20040;-77
2023/07/20 11:46:04;;;;;;;1.83;1.13;;;;;;;20.24;75.18;101544.56;5024935;28;20032;-78
2023/07/20 11:48:56;;;;;;;2.00;1.00;;;;;;;20.31;73.27;101535.03;5023594;28;20067;-78
2023/07/20 11:51:42;;;;;;;3.10;1.00;;;;;;;20.40;72.13;101539.75;5036053;28;20040;-77
2023/07/20 11:54:28;;;;;;;2.55;1.00;;;;;;;20.50;72.07;101539.91;5039170;28;20067;-77
2023/07/20 11:57:19;;;;;;;1.10;0.80;;;;;;;20.59;69.90;101536.47;5038098;28;20680;-77
2023/07/20 12:00:09;;;;;;;1.02;0.90;;;;;;;20.71;70.91;101536.50;5037612;28;20395;-76
2023/07/20 12:02:54;;;;;;;1.98;0.88;;;;;;;20.75;70.75;101538.84;5028922;28;20045;-75
2023/07/20 12:05:40;;;;;;;3.50;1.30;;;;;;;20.65;69.80;101532.47;5052446;28;20080;-76
2023/07/20 12:08:26;;;;;;;1.15;1.05;;;;;;;20.65;71.51;101527.09;5038653;28;20037;-77
2023/07/20 12:11:12;;;;;;;1.45;1.20;;;;;;;20.68;71.44;101536.75;5037964;28;20487;-77
2023/07/20 12:13:58;;;;;;;2.15;1.35;;;;;;;20.73;71.95;101527.34;5024729;28;20060;-77
2023/07/20 12:16:44;;;;;;;1.83;1.00;;;;;;;20.80;71.23;101533.09;5040004;28;20071;-77
2023/07/20 12:19:30;;;;;;;1.75;0.90;;;;;;;20.89;69.63;101534.25;5037930;28;20176;-77
2023/07/20 12:22:15;;;;;;;1.83;1.20;;;;;;;20.86;69.50;101534.50;5038587;28;20044;-76
2023/07/20 12:25:05;;;;;;;2.10;1.08;;;;;;;20.65;68.46;101532.47;5027416;28;20045;-77
2023/07/20 12:27:51;;;;;;;1.98;1.20;;;;;;;20.44;68.40;101530.44;5038097;28;20041;-76
2023/07/20 12:30:38;;;;;;;1.30;1.10;;;;;;;20.34;69.37;101529.47;5041708;28;20072;-77
2023/07/20 12:33:24;;;;;;;1.27;0.90;;;;;;;20.27;69.28;101529.06;5042156;28;20053;-76
2023/07/20 12:36:10;;;;;;;2.20;1.17;;;;;;;20.18;67.95;101527.06;5026775;28;20037;-76
2023/07/20 12:38:56;;;;;;;2.55;1.00;;;;;;;20.22;69.01;101531.25;5027836;28;20051;-77
2023/07/20 12:41:41;;;;;;;1.85;0.93;;;;;;;20.21;67.31;101516.09;5042573;28;20063;-77
2023/07/20 12:44:27;;;;;;;1.25;1.00;;;;;;;20.20;68.07;101520.63;5027959;28;20143;-77
2023/07/20 12:47:13;;;;;;;1.02;0.77;;;;;;;20.10;67.56;101524.13;5043410;28;20041;-77
2023/07/20 12:49:59;;;;;;;2.60;1.17;;;;;;;20.13;68.04;101519.38;5027840;28;20034;-77